sensor_id;sensor_type;location;lat;lon;timestamp;P1;durP1;ratioP1;P2;durP2;ratioP2
37201;SDS011;37799;52.390;6.136;2023-07-31T00:02:21;1.60;;;0.28;;
37201;SDS011;37799;52.390;6.136;2023-07-31T00:04:47;1.02;;;0.13;;
37201;SDS011;37799;52.390;6.136;2023-07-31T00:07:14;1.02;;;0.10;;
37201;SDS011;37799;52.390;6.136;2023-07-31T00:09:39;2.17;;;0.35;;
37201;SDS011;37799;52.390;6.136;2023-07-31T00:12:04;0.20;;;0.00;;
37201;SDS011;37799;52.390;6.136;2023-07-31T00:14:30;0.28;;;0.08;;
37201;SDS011;37799;52.390;6.136;2023-07-31T00:16:55;1.13;;;0.20;;
37201;SDS011;37799;52.390;6.136;2023-07-31T00:19:21;0.50;;;0.13;;
37201;SDS011;37799;52.390;6.136;2023-07-31T00:21:46;1.02;;;0.10;;
37201;SDS011;37799;52.390;6.136;2023-07-31T00:24:11;0.90;;;0.00;;
37201;SDS011;37799;52.390;6.136;2023-07-31T00:26:37;0.10;;;0.00;;
37201;SDS011;37799;52.390;6.136;2023-07-31T00:29:02;1.20;;;0.10;;
37201;SDS011;37799;52.390;6.136;2023-07-31T00:31:27;0.25;;;0.00;;
37201;SDS011;37799;52.390;6.136;2023-07-31T00:33:53;0.15;;;0.00;;
37201;SDS011;37799;52.390;6.136;2023-07-31T00:36:18;1.00;;;0.00;;
37201;SDS011;37799;52.390;6.136;2023-07-31T00:38:44;0.65;;;0.10;;
37201;SDS011;37799;52.390;6.136;2023-07-31T00:41:09;0.80;;;0.35;;
37201;SDS011;37799;52.390;6.136;2023-07-31T00:43:34;0.85;;;0.10;;
37201;SDS011;37799;52.390;6.136;2023-07-31T00:46:00;0.30;;;0.00;;
37201;SDS011;37799;52.390;6.136;2023-07-31T00:48:25;0.20;;;0.00;;
37201;SDS011;37799;52.390;6.136;2023-07-31T00:50:51;0.47;;;0.00;;
37201;SDS011;37799;52.390;6.136;2023-07-31T00:53:16;0.40;;;0.00;;
37201;SDS011;37799;52.390;6.136;2023-07-31T00:55:42;0.00;;;0.00;;
37201;SDS011;37799;52.390;6.136;2023-07-31T00:58:08;0.52;;;0.00;;
37201;SDS011;37799;52.390;6.136;2023-07-31T01:00:33;0.15;;;0.00;;
37201;SDS011;37799;52.390;6.136;2023-07-31T01:02:59;0.10;;;0.00;;
37201;SDS011;37799;52.390;6.136;2023-07-31T01:05:28;0.00;;;0.00;;
37201;SDS011;37799;52.390;6.136;2023-07-31T01:10:46;0.25;;;0.00;;
37201;SDS011;37799;52.390;6.136;2023-07-31T01:13:19;2.93;;;0.10;;
37201;SDS011;37799;52.390;6.136;2023-07-31T01:15:46;0.45;;;0.05;;
37201;SDS011;37799;52.390;6.136;2023-07-31T01:18:11;0.22;;;0.00;;
37201;SDS011;37799;52.390;6.136;2023-07-31T01:20:36;0.30;;;0.00;;
37201;SDS011;37799;52.390;6.136;2023-07-31T01:31:25;1.35;;;0.00;;
37201;SDS011;37799;52.390;6.136;2023-07-31T01:33:52;0.10;;;0.00;;
37201;SDS011;37799;52.390;6.136;2023-07-31T01:36:19;0.75;;;0.08;;
37201;SDS011;37799;52.390;6.136;2023-07-31T01:38:45;1.48;;;0.10;;
37201;SDS011;37799;52.390;6.136;2023-07-31T01:41:10;0.32;;;0.05;;
37201;SDS011;37799;52.390;6.136;2023-07-31T01:43:35;0.30;;;0.00;;
37201;SDS011;37799;52.390;6.136;2023-07-31T01:46:01;0.93;;;0.10;;
37201;SDS011;37799;52.390;6.136;2023-07-31T01:48:26;0.38;;;0.00;;
37201;SDS011;37799;52.390;6.136;2023-07-31T01:50:52;0.63;;;0.03;;
37201;SDS011;37799;52.390;6.136;2023-07-31T01:53:17;0.22;;;0.00;;
37201;SDS011;37799;52.390;6.136;2023-07-31T01:55:42;0.10;;;0.00;;
37201;SDS011;37799;52.390;6.136;2023-07-31T01:58:08;0.60;;;0.20;;
37201;SDS011;37799;52.390;6.136;2023-07-31T02:00:33;0.10;;;0.00;;
37201;SDS011;37799;52.390;6.136;2023-07-31T02:02:59;0.82;;;0.22;;
37201;SDS011;37799;52.390;6.136;2023-07-31T02:05:24;0.52;;;0.10;;
37201;SDS011;37799;52.390;6.136;2023-07-31T02:07:49;0.13;;;0.00;;
37201;SDS011;37799;52.390;6.136;2023-07-31T02:10:15;0.45;;;0.00;;
37201;SDS011;37799;52.390;6.136;2023-07-31T02:12:40;0.63;;;0.00;;
37201;SDS011;37799;52.390;6.136;2023-07-31T02:15:06;0.52;;;0.10;;
37201;SDS011;37799;52.390;6.136;2023-07-31T02:17:31;0.65;;;0.00;;
37201;SDS011;37799;52.390;6.136;2023-07-31T02:19:57;0.55;;;0.10;;
37201;SDS011;37799;52.390;6.136;2023-07-31T02:22:22;1.20;;;0.00;;
37201;SDS011;37799;52.390;6.136;2023-07-31T02:24:47;0.40;;;0.10;;
37201;SDS011;37799;52.390;6.136;2023-07-31T02:27:13;3.10;;;0.00;;
37201;SDS011;37799;52.390;6.136;2023-07-31T02:29:38;1.55;;;0.55;;
37201;SDS011;37799;52.390;6.136;2023-07-31T02:32:03;0.40;;;0.10;;
37201;SDS011;37799;52.390;6.136;2023-07-31T02:34:29;0.98;;;0.10;;
37201;SDS011;37799;52.390;6.136;2023-07-31T02:36:55;0.55;;;0.20;;
37201;SDS011;37799;52.390;6.136;2023-07-31T02:39:20;0.40;;;0.10;;
37201;SDS011;37799;52.390;6.136;2023-07-31T02:41:46;0.35;;;0.10;;
37201;SDS011;37799;52.390;6.136;2023-07-31T02:44:11;0.47;;;0.10;;
37201;SDS011;37799;52.390;6.136;2023-07-31T02:46:39;0.30;;;0.00;;
37201;SDS011;37799;52.390;6.136;2023-07-31T02:49:04;0.90;;;0.20;;
37201;SDS011;37799;52.390;6.136;2023-07-31T02:51:30;2.03;;;0.32;;
37201;SDS011;37799;52.390;6.136;2023-07-31T02:53:55;2.38;;;0.38;;
37201;SDS011;37799;52.390;6.136;2023-07-31T02:56:20;1.65;;;0.35;;
37201;SDS011;37799;52.390;6.136;2023-07-31T02:58:46;2.15;;;0.70;;
37201;SDS011;37799;52.390;6.136;2023-07-31T03:01:11;2.65;;;0.45;;
37201;SDS011;37799;52.390;6.136;2023-07-31T03:03:36;1.85;;;0.47;;
37201;SDS011;37799;52.390;6.136;2023-07-31T03:06:02;1.17;;;0.30;;
37201;SDS011;37799;52.390;6.136;2023-07-31T03:08:27;3.03;;;0.50;;
37201;SDS011;37799;52.390;6.136;2023-07-31T03:10:52;2.90;;;0.38;;
37201;SDS011;37799;52.390;6.136;2023-07-31T03:13:18;1.52;;;0.57;;
37201;SDS011;37799;52.390;6.136;2023-07-31T03:15:43;1.40;;;0.40;;
37201;SDS011;37799;52.390;6.136;2023-07-31T03:18:08;2.47;;;0.40;;
37201;SDS011;37799;52.390;6.136;2023-07-31T03:20:34;4.03;;;0.95;;
37201;SDS011;37799;52.390;6.136;2023-07-31T03:22:59;2.65;;;0.60;;
37201;SDS011;37799;52.390;6.136;2023-07-31T03:25:25;3.88;;;0.68;;
37201;SDS011;37799;52.390;6.136;2023-07-31T03:27:50;2.13;;;0.60;;
37201;SDS011;37799;52.390;6.136;2023-07-31T03:30:15;2.33;;;0.60;;
37201;SDS011;37799;52.390;6.136;2023-07-31T03:32:41;2.92;;;0.50;;
37201;SDS011;37799;52.390;6.136;2023-07-31T03:35:06;3.33;;;0.50;;
37201;SDS011;37799;52.390;6.136;2023-07-31T03:37:31;4.85;;;0.63;;
37201;SDS011;37799;52.390;6.136;2023-07-31T03:39:57;5.70;;;0.65;;
37201;SDS011;37799;52.390;6.136;2023-07-31T03:42:22;3.05;;;0.75;;
37201;SDS011;37799;52.390;6.136;2023-07-31T03:44:47;5.45;;;1.15;;
37201;SDS011;37799;52.390;6.136;2023-07-31T03:47:13;5.10;;;0.88;;
37201;SDS011;37799;52.390;6.136;2023-07-31T03:49:38;5.32;;;1.23;;
37201;SDS011;37799;52.390;6.136;2023-07-31T03:52:04;9.45;;;1.17;;
37201;SDS011;37799;52.390;6.136;2023-07-31T03:54:29;4.80;;;1.10;;
37201;SDS011;37799;52.390;6.136;2023-07-31T03:56:55;6.05;;;1.02;;
37201;SDS011;37799;52.390;6.136;2023-07-31T03:59:20;6.03;;;1.30;;
37201;SDS011;37799;52.390;6.136;2023-07-31T04:01:45;5.78;;;1.30;;
37201;SDS011;37799;52.390;6.136;2023-07-31T04:04:11;9.05;;;1.20;;
37201;SDS011;37799;52.390;6.136;2023-07-31T04:06:36;4.70;;;1.30;;
37201;SDS011;37799;52.390;6.136;2023-07-31T04:09:02;5.43;;;1.00;;
37201;SDS011;37799;52.390;6.136;2023-07-31T04:11:28;4.70;;;1.35;;
37201;SDS011;37799;52.390;6.136;2023-07-31T04:13:53;5.88;;;1.00;;
37201;SDS011;37799;52.390;6.136;2023-07-31T04:16:18;7.93;;;1.40;;
37201;SDS011;37799;52.390;6.136;2023-07-31T04:18:44;6.35;;;1.50;;
37201;SDS011;37799;52.390;6.136;2023-07-31T04:21:09;5.18;;;1.20;;
37201;SDS011;37799;52.390;6.136;2023-07-31T04:23:35;8.75;;;1.65;;
37201;SDS011;37799;52.390;6.136;2023-07-31T04:26:00;7.25;;;1.45;;
37201;SDS011;37799;52.390;6.136;2023-07-31T04:28:25;13.13;;;1.73;;
37201;SDS011;37799;52.390;6.136;2023-07-31T04:30:51;6.80;;;1.40;;
37201;SDS011;37799;52.390;6.136;2023-07-31T04:33:17;4.88;;;1.02;;
37201;SDS011;37799;52.390;6.136;2023-07-31T04:35:48;5.95;;;1.73;;
37201;SDS011;37799;52.390;6.136;2023-07-31T04:38:17;9.55;;;1.58;;
37201;SDS011;37799;52.390;6.136;2023-07-31T04:40:44;5.30;;;1.33;;
37201;SDS011;37799;52.390;6.136;2023-07-31T04:43:09;5.85;;;1.55;;
37201;SDS011;37799;52.390;6.136;2023-07-31T04:45:34;6.68;;;1.75;;
37201;SDS011;37799;52.390;6.136;2023-07-31T04:48:00;4.85;;;1.70;;
37201;SDS011;37799;52.390;6.136;2023-07-31T04:50:25;8.50;;;2.47;;
37201;SDS011;37799;52.390;6.136;2023-07-31T04:52:50;8.10;;;1.63;;
37201;SDS011;37799;52.390;6.136;2023-07-31T04:55:16;7.50;;;1.58;;
37201;SDS011;37799;52.390;6.136;2023-07-31T04:57:41;3.97;;;1.40;;
37201;SDS011;37799;52.390;6.136;2023-07-31T05:00:07;6.45;;;1.20;;
37201;SDS011;37799;52.390;6.136;2023-07-31T05:02:32;10.30;;;1.70;;
37201;SDS011;37799;52.390;6.136;2023-07-31T05:04:58;6.82;;;1.20;;
37201;SDS011;37799;52.390;6.136;2023-07-31T05:07:24;10.15;;;2.22;;
37201;SDS011;37799;52.390;6.136;2023-07-31T05:09:49;6.22;;;1.60;;
37201;SDS011;37799;52.390;6.136;2023-07-31T05:12:14;10.73;;;1.85;;
37201;SDS011;37799;52.390;6.136;2023-07-31T05:14:40;7.25;;;1.40;;
37201;SDS011;37799;52.390;6.136;2023-07-31T05:17:05;6.72;;;1.70;;
37201;SDS011;37799;52.390;6.136;2023-07-31T05:19:30;10.25;;;2.38;;
37201;SDS011;37799;52.390;6.136;2023-07-31T05:21:56;7.22;;;1.17;;
37201;SDS011;37799;52.390;6.136;2023-07-31T05:24:21;6.50;;;1.48;;
37201;SDS011;37799;52.390;6.136;2023-07-31T05:26:46;9.00;;;1.58;;
37201;SDS011;37799;52.390;6.136;2023-07-31T05:29:12;5.20;;;1.17;;
37201;SDS011;37799;52.390;6.136;2023-07-31T05:31:38;4.50;;;1.05;;
37201;SDS011;37799;52.390;6.136;2023-07-31T05:34:03;4.22;;;0.95;;
37201;SDS011;37799;52.390;6.136;2023-07-31T05:36:29;5.00;;;1.48;;
37201;SDS011;37799;52.390;6.136;2023-07-31T05:38:54;7.93;;;1.90;;
37201;SDS011;37799;52.390;6.136;2023-07-31T05:41:19;8.18;;;1.65;;
37201;SDS011;37799;52.390;6.136;2023-07-31T05:43:45;4.93;;;1.05;;
37201;SDS011;37799;52.390;6.136;2023-07-31T05:46:10;4.97;;;1.30;;
37201;SDS011;37799;52.390;6.136;2023-07-31T05:48:36;4.82;;;1.25;;
37201;SDS011;37799;52.390;6.136;2023-07-31T05:51:02;4.13;;;0.80;;
37201;SDS011;37799;52.390;6.136;2023-07-31T05:53:28;5.88;;;1.30;;
37201;SDS011;37799;52.390;6.136;2023-07-31T05:55:53;5.57;;;1.17;;
37201;SDS011;37799;52.390;6.136;2023-07-31T05:58:18;4.38;;;0.90;;
37201;SDS011;37799;52.390;6.136;2023-07-31T06:00:44;4.45;;;0.90;;
37201;SDS011;37799;52.390;6.136;2023-07-31T06:03:09;7.28;;;1.15;;
37201;SDS011;37799;52.390;6.136;2023-07-31T06:05:34;8.60;;;0.90;;
37201;SDS011;37799;52.390;6.136;2023-07-31T06:08:00;5.95;;;1.35;;
37201;SDS011;37799;52.390;6.136;2023-07-31T06:10:26;6.55;;;1.83;;
37201;SDS011;37799;52.390;6.136;2023-07-31T06:12:53;3.97;;;0.60;;
37201;SDS011;37799;52.390;6.136;2023-07-31T06:15:19;4.57;;;0.80;;
37201;SDS011;37799;52.390;6.136;2023-07-31T06:17:44;4.32;;;1.08;;
37201;SDS011;37799;52.390;6.136;2023-07-31T06:20:10;7.78;;;1.23;;
37201;SDS011;37799;52.390;6.136;2023-07-31T06:22:35;3.45;;;0.77;;
37201;SDS011;37799;52.390;6.136;2023-07-31T06:25:01;6.50;;;1.08;;
37201;SDS011;37799;52.390;6.136;2023-07-31T06:27:26;3.75;;;1.42;;
37201;SDS011;37799;52.390;6.136;2023-07-31T06:29:52;5.53;;;0.70;;
37201;SDS011;37799;52.390;6.136;2023-07-31T06:32:17;4.20;;;0.80;;
37201;SDS011;37799;52.390;6.136;2023-07-31T06:34:43;3.03;;;0.85;;
37201;SDS011;37799;52.390;6.136;2023-07-31T06:37:08;3.92;;;1.58;;
37201;SDS011;37799;52.390;6.136;2023-07-31T06:39:34;3.53;;;0.50;;
37201;SDS011;37799;52.390;6.136;2023-07-31T06:41:59;3.15;;;0.80;;
37201;SDS011;37799;52.390;6.136;2023-07-31T06:44:24;4.00;;;0.95;;
37201;SDS011;37799;52.390;6.136;2023-07-31T06:46:50;6.95;;;0.70;;
37201;SDS011;37799;52.390;6.136;2023-07-31T06:49:15;3.30;;;0.57;;
37201;SDS011;37799;52.390;6.136;2023-07-31T06:51:41;3.00;;;0.80;;
37201;SDS011;37799;52.390;6.136;2023-07-31T06:54:07;3.97;;;0.88;;
37201;SDS011;37799;52.390;6.136;2023-07-31T06:56:33;2.80;;;0.80;;
37201;SDS011;37799;52.390;6.136;2023-07-31T06:58:59;3.45;;;0.80;;
37201;SDS011;37799;52.390;6.136;2023-07-31T07:01:24;4.10;;;0.90;;
37201;SDS011;37799;52.390;6.136;2023-07-31T07:03:49;4.13;;;0.40;;
37201;SDS011;37799;52.390;6.136;2023-07-31T07:06:16;4.50;;;1.15;;
37201;SDS011;37799;52.390;6.136;2023-07-31T07:08:44;4.57;;;1.10;;
37201;SDS011;37799;52.390;6.136;2023-07-31T07:11:10;2.50;;;0.68;;
37201;SDS011;37799;52.390;6.136;2023-07-31T07:13:35;2.08;;;0.55;;
37201;SDS011;37799;52.390;6.136;2023-07-31T07:16:01;2.65;;;0.50;;
37201;SDS011;37799;52.390;6.136;2023-07-31T07:18:26;4.50;;;0.52;;
37201;SDS011;37799;52.390;6.136;2023-07-31T07:20:52;2.17;;;0.65;;
37201;SDS011;37799;52.390;6.136;2023-07-31T07:23:18;2.63;;;0.43;;
37201;SDS011;37799;52.390;6.136;2023-07-31T07:25:44;3.55;;;0.50;;
37201;SDS011;37799;52.390;6.136;2023-07-31T07:28:11;2.00;;;0.55;;
37201;SDS011;37799;52.390;6.136;2023-07-31T07:30:37;1.77;;;0.45;;
37201;SDS011;37799;52.390;6.136;2023-07-31T07:33:02;2.08;;;0.47;;
37201;SDS011;37799;52.390;6.136;2023-07-31T07:35:28;5.03;;;0.43;;
37201;SDS011;37799;52.390;6.136;2023-07-31T07:37:53;2.15;;;0.43;;
37201;SDS011;37799;52.390;6.136;2023-07-31T07:40:19;7.53;;;0.50;;
37201;SDS011;37799;52.390;6.136;2023-07-31T07:42:45;1.40;;;0.30;;
37201;SDS011;37799;52.390;6.136;2023-07-31T07:45:10;3.30;;;0.57;;
37201;SDS011;37799;52.390;6.136;2023-07-31T07:47:35;2.75;;;0.40;;
37201;SDS011;37799;52.390;6.136;2023-07-31T07:50:01;2.55;;;0.38;;
37201;SDS011;37799;52.390;6.136;2023-07-31T07:52:26;1.83;;;0.30;;
37201;SDS011;37799;52.390;6.136;2023-07-31T07:54:52;1.35;;;0.30;;
37201;SDS011;37799;52.390;6.136;2023-07-31T07:57:18;2.90;;;0.50;;
37201;SDS011;37799;52.390;6.136;2023-07-31T07:59:43;1.65;;;0.40;;
37201;SDS011;37799;52.390;6.136;2023-07-31T08:02:09;2.55;;;0.50;;
37201;SDS011;37799;52.390;6.136;2023-07-31T08:04:34;2.05;;;0.30;;
37201;SDS011;37799;52.390;6.136;2023-07-31T08:06:59;1.52;;;0.20;;
37201;SDS011;37799;52.390;6.136;2023-07-31T08:09:25;1.48;;;0.30;;
37201;SDS011;37799;52.390;6.136;2023-07-31T08:11:50;1.77;;;0.22;;
37201;SDS011;37799;52.390;6.136;2023-07-31T08:14:15;1.63;;;0.20;;
37201;SDS011;37799;52.390;6.136;2023-07-31T08:16:41;1.92;;;0.50;;
37201;SDS011;37799;52.390;6.136;2023-07-31T08:19:06;0.80;;;0.10;;
37201;SDS011;37799;52.390;6.136;2023-07-31T08:21:31;1.35;;;0.25;;
37201;SDS011;37799;52.390;6.136;2023-07-31T08:23:57;0.63;;;0.10;;
37201;SDS011;37799;52.390;6.136;2023-07-31T08:26:22;1.38;;;0.30;;
37201;SDS011;37799;52.390;6.136;2023-07-31T08:28:48;0.70;;;0.20;;
37201;SDS011;37799;52.390;6.136;2023-07-31T08:31:13;2.40;;;0.30;;
37201;SDS011;37799;52.390;6.136;2023-07-31T08:33:38;1.10;;;0.30;;
37201;SDS011;37799;52.390;6.136;2023-07-31T08:36:05;1.48;;;0.30;;
37201;SDS011;37799;52.390;6.136;2023-07-31T08:38:31;1.63;;;0.38;;
37201;SDS011;37799;52.390;6.136;2023-07-31T08:40:56;0.93;;;0.10;;
37201;SDS011;37799;52.390;6.136;2023-07-31T08:43:22;1.42;;;0.22;;
37201;SDS011;37799;52.390;6.136;2023-07-31T08:45:50;2.63;;;0.30;;
37201;SDS011;37799;52.390;6.136;2023-07-31T08:48:16;0.10;;;0.00;;
37201;SDS011;37799;52.390;6.136;2023-07-31T08:50:42;0.88;;;0.10;;
37201;SDS011;37799;52.390;6.136;2023-07-31T08:53:08;1.25;;;0.22;;
37201;SDS011;37799;52.390;6.136;2023-07-31T08:55:34;0.88;;;0.10;;
37201;SDS011;37799;52.390;6.136;2023-07-31T08:58:01;0.80;;;0.20;;
37201;SDS011;37799;52.390;6.136;2023-07-31T09:00:29;0.60;;;0.10;;
37201;SDS011;37799;52.390;6.136;2023-07-31T09:03:01;0.38;;;0.10;;
37201;SDS011;37799;52.390;6.136;2023-07-31T09:05:29;0.63;;;0.10;;
37201;SDS011;37799;52.390;6.136;2023-07-31T09:07:56;1.33;;;0.17;;
37201;SDS011;37799;52.390;6.136;2023-07-31T09:10:22;1.27;;;0.25;;
37201;SDS011;37799;52.390;6.136;2023-07-31T09:12:51;0.90;;;0.30;;
37201;SDS011;37799;52.390;6.136;2023-07-31T09:15:17;1.35;;;0.20;;
37201;SDS011;37799;52.390;6.136;2023-07-31T09:17:44;2.13;;;0.32;;
37201;SDS011;37799;52.390;6.136;2023-07-31T09:20:13;1.20;;;0.20;;
37201;SDS011;37799;52.390;6.136;2023-07-31T09:22:43;1.23;;;0.30;;
37201;SDS011;37799;52.390;6.136;2023-07-31T09:25:19;1.73;;;0.47;;
37201;SDS011;37799;52.390;6.136;2023-07-31T09:28:10;1.75;;;0.52;;
37201;SDS011;37799;52.390;6.136;2023-07-31T09:30:45;0.52;;;0.20;;
37201;SDS011;37799;52.390;6.136;2023-07-31T09:33:15;2.13;;;0.50;;
37201;SDS011;37799;52.390;6.136;2023-07-31T09:35:40;2.15;;;0.57;;
37201;SDS011;37799;52.390;6.136;2023-07-31T09:40:36;1.83;;;0.30;;
37201;SDS011;37799;52.390;6.136;2023-07-31T09:43:09;1.98;;;0.43;;
37201;SDS011;37799;52.390;6.136;2023-07-31T09:45:39;2.15;;;0.50;;
37201;SDS011;37799;52.390;6.136;2023-07-31T09:48:10;1.65;;;0.30;;
37201;SDS011;37799;52.390;6.136;2023-07-31T09:50:46;1.45;;;0.40;;
37201;SDS011;37799;52.390;6.136;2023-07-31T09:53:13;0.63;;;0.10;;
37201;SDS011;37799;52.390;6.136;2023-07-31T09:55:39;1.30;;;0.30;;
37201;SDS011;37799;52.390;6.136;2023-07-31T09:58:07;1.13;;;0.30;;
37201;SDS011;37799;52.390;6.136;2023-07-31T10:00:34;1.73;;;0.40;;
37201;SDS011;37799;52.390;6.136;2023-07-31T10:03:00;1.45;;;0.25;;
37201;SDS011;37799;52.390;6.136;2023-07-31T10:05:30;2.17;;;0.40;;
37201;SDS011;37799;52.390;6.136;2023-07-31T10:07:59;1.30;;;0.25;;
37201;SDS011;37799;52.390;6.136;2023-07-31T10:10:25;0.95;;;0.20;;
37201;SDS011;37799;52.390;6.136;2023-07-31T10:12:53;1.38;;;0.30;;
37201;SDS011;37799;52.390;6.136;2023-07-31T10:15:19;1.05;;;0.22;;
37201;SDS011;37799;52.390;6.136;2023-07-31T10:17:48;0.80;;;0.20;;
37201;SDS011;37799;52.390;6.136;2023-07-31T10:20:14;0.93;;;0.20;;
37201;SDS011;37799;52.390;6.136;2023-07-31T10:22:44;1.10;;;0.30;;
37201;SDS011;37799;52.390;6.136;2023-07-31T10:25:13;1.73;;;0.40;;
37201;SDS011;37799;52.390;6.136;2023-07-31T10:27:40;2.42;;;0.30;;
37201;SDS011;37799;52.390;6.136;2023-07-31T10:30:09;2.58;;;0.20;;
37201;SDS011;37799;52.390;6.136;2023-07-31T10:32:38;1.60;;;0.30;;
37201;SDS011;37799;52.390;6.136;2023-07-31T10:35:06;1.40;;;0.20;;
37201;SDS011;37799;52.390;6.136;2023-07-31T10:37:37;1.17;;;0.20;;
37201;SDS011;37799;52.390;6.136;2023-07-31T10:40:10;1.27;;;0.20;;
37201;SDS011;37799;52.390;6.136;2023-07-31T10:42:50;2.35;;;0.38;;
37201;SDS011;37799;52.390;6.136;2023-07-31T10:45:35;1.80;;;0.40;;
37201;SDS011;37799;52.390;6.136;2023-07-31T10:48:03;0.73;;;0.30;;
37201;SDS011;37799;52.390;6.136;2023-07-31T10:50:30;2.65;;;0.50;;
37201;SDS011;37799;52.390;6.136;2023-07-31T10:53:00;1.27;;;0.40;;
37201;SDS011;37799;52.390;6.136;2023-07-31T10:58:09;1.67;;;0.40;;
37201;SDS011;37799;52.390;6.136;2023-07-31T11:00:39;1.20;;;0.28;;
37201;SDS011;37799;52.390;6.136;2023-07-31T11:03:07;1.60;;;0.25;;
37201;SDS011;37799;52.390;6.136;2023-07-31T11:08:24;1.73;;;0.28;;
37201;SDS011;37799;52.390;6.136;2023-07-31T11:11:12;2.10;;;0.50;;
37201;SDS011;37799;52.390;6.136;2023-07-31T11:16:17;1.70;;;0.50;;
37201;SDS011;37799;52.390;6.136;2023-07-31T11:18:44;2.22;;;0.45;;
37201;SDS011;37799;52.390;6.136;2023-07-31T11:21:13;1.23;;;0.30;;
37201;SDS011;37799;52.390;6.136;2023-07-31T11:23:52;2.45;;;0.50;;
37201;SDS011;37799;52.390;6.136;2023-07-31T11:26:22;2.33;;;0.70;;
37201;SDS011;37799;52.390;6.136;2023-07-31T11:28:49;2.67;;;0.40;;
37201;SDS011;37799;52.390;6.136;2023-07-31T11:31:16;3.22;;;0.60;;
37201;SDS011;37799;52.390;6.136;2023-07-31T11:33:42;1.90;;;0.40;;
37201;SDS011;37799;52.390;6.136;2023-07-31T11:36:17;3.90;;;1.05;;
37201;SDS011;37799;52.390;6.136;2023-07-31T11:38:43;3.05;;;0.70;;
37201;SDS011;37799;52.390;6.136;2023-07-31T11:41:09;2.97;;;0.47;;
37201;SDS011;37799;52.390;6.136;2023-07-31T11:43:34;3.00;;;0.60;;
37201;SDS011;37799;52.390;6.136;2023-07-31T11:46:01;6.00;;;0.80;;
37201;SDS011;37799;52.390;6.136;2023-07-31T11:48:36;4.00;;;0.80;;
37201;SDS011;37799;52.390;6.136;2023-07-31T11:51:05;2.30;;;0.63;;
37201;SDS011;37799;52.390;6.136;2023-07-31T11:53:49;4.07;;;0.80;;
37201;SDS011;37799;52.390;6.136;2023-07-31T11:56:18;3.67;;;0.80;;
37201;SDS011;37799;52.390;6.136;2023-07-31T11:58:48;3.33;;;0.80;;
37201;SDS011;37799;52.390;6.136;2023-07-31T12:01:15;2.38;;;0.60;;
37201;SDS011;37799;52.390;6.136;2023-07-31T12:03:44;3.53;;;0.80;;
37201;SDS011;37799;52.390;6.136;2023-07-31T12:06:11;2.92;;;0.65;;
37201;SDS011;37799;52.390;6.136;2023-07-31T12:08:36;4.10;;;0.50;;
37201;SDS011;37799;52.390;6.136;2023-07-31T12:11:03;3.20;;;0.90;;
37201;SDS011;37799;52.390;6.136;2023-07-31T12:13:30;3.08;;;0.85;;
37201;SDS011;37799;52.390;6.136;2023-07-31T12:15:57;4.00;;;0.95;;
37201;SDS011;37799;52.390;6.136;2023-07-31T12:18:25;2.88;;;0.70;;
37201;SDS011;37799;52.390;6.136;2023-07-31T12:20:55;2.75;;;0.75;;
37201;SDS011;37799;52.390;6.136;2023-07-31T12:23:23;2.78;;;0.70;;
37201;SDS011;37799;52.390;6.136;2023-07-31T12:26:09;3.22;;;0.98;;
37201;SDS011;37799;52.390;6.136;2023-07-31T12:28:37;4.20;;;0.93;;
37201;SDS011;37799;52.390;6.136;2023-07-31T12:31:08;2.10;;;0.57;;
37201;SDS011;37799;52.390;6.136;2023-07-31T12:33:40;1.95;;;0.50;;
37201;SDS011;37799;52.390;6.136;2023-07-31T12:36:07;3.10;;;0.88;;
37201;SDS011;37799;52.390;6.136;2023-07-31T12:38:36;1.85;;;0.40;;
37201;SDS011;37799;52.390;6.136;2023-07-31T12:41:02;2.28;;;0.45;;
37201;SDS011;37799;52.390;6.136;2023-07-31T12:43:27;2.33;;;0.55;;
37201;SDS011;37799;52.390;6.136;2023-07-31T12:45:53;1.75;;;0.52;;
37201;SDS011;37799;52.390;6.136;2023-07-31T12:48:21;1.58;;;0.30;;
37201;SDS011;37799;52.390;6.136;2023-07-31T12:50:46;2.47;;;0.50;;
37201;SDS011;37799;52.390;6.136;2023-07-31T12:53:12;0.73;;;0.10;;
37201;SDS011;37799;52.390;6.136;2023-07-31T12:55:37;3.00;;;0.30;;
37201;SDS011;37799;52.390;6.136;2023-07-31T12:58:02;0.88;;;0.32;;
37201;SDS011;37799;52.390;6.136;2023-07-31T13:00:28;0.47;;;0.10;;
37201;SDS011;37799;52.390;6.136;2023-07-31T13:02:54;0.65;;;0.20;;
37201;SDS011;37799;52.390;6.136;2023-07-31T13:05:19;0.93;;;0.17;;
37201;SDS011;37799;52.390;6.136;2023-07-31T13:07:45;0.65;;;0.10;;
37201;SDS011;37799;52.390;6.136;2023-07-31T13:10:11;0.90;;;0.30;;
37201;SDS011;37799;52.390;6.136;2023-07-31T13:12:36;1.50;;;0.30;;
37201;SDS011;37799;52.390;6.136;2023-07-31T13:15:02;1.75;;;0.43;;
37201;SDS011;37799;52.390;6.136;2023-07-31T13:17:29;4.20;;;0.43;;
37201;SDS011;37799;52.390;6.136;2023-07-31T13:19:54;2.05;;;0.52;;
37201;SDS011;37799;52.390;6.136;2023-07-31T13:22:19;2.30;;;0.52;;
37201;SDS011;37799;52.390;6.136;2023-07-31T13:24:45;2.92;;;0.70;;
37201;SDS011;37799;52.390;6.136;2023-07-31T13:27:10;2.35;;;0.47;;
37201;SDS011;37799;52.390;6.136;2023-07-31T13:29:35;2.45;;;0.70;;
37201;SDS011;37799;52.390;6.136;2023-07-31T13:32:01;2.65;;;0.65;;
37201;SDS011;37799;52.390;6.136;2023-07-31T13:34:26;3.03;;;0.80;;
37201;SDS011;37799;52.390;6.136;2023-07-31T13:36:53;3.15;;;1.02;;
37201;SDS011;37799;52.390;6.136;2023-07-31T13:39:19;2.25;;;0.52;;
37201;SDS011;37799;52.390;6.136;2023-07-31T13:41:44;2.63;;;0.57;;
37201;SDS011;37799;52.390;6.136;2023-07-31T13:44:10;3.35;;;0.80;;
37201;SDS011;37799;52.390;6.136;2023-07-31T13:46:35;4.00;;;0.90;;
37201;SDS011;37799;52.390;6.136;2023-07-31T13:49:00;2.03;;;0.38;;
37201;SDS011;37799;52.390;6.136;2023-07-31T13:51:26;3.28;;;0.93;;
37201;SDS011;37799;52.390;6.136;2023-07-31T13:53:52;3.35;;;0.80;;
37201;SDS011;37799;52.390;6.136;2023-07-31T13:56:18;3.92;;;1.00;;
37201;SDS011;37799;52.390;6.136;2023-07-31T13:58:43;2.10;;;0.50;;
37201;SDS011;37799;52.390;6.136;2023-07-31T14:01:09;2.50;;;0.60;;
37201;SDS011;37799;52.390;6.136;2023-07-31T14:03:34;1.90;;;0.50;;
37201;SDS011;37799;52.390;6.136;2023-07-31T14:05:59;3.58;;;0.60;;
37201;SDS011;37799;52.390;6.136;2023-07-31T14:08:25;2.15;;;0.50;;
37201;SDS011;37799;52.390;6.136;2023-07-31T14:10:50;2.00;;;0.43;;
37201;SDS011;37799;52.390;6.136;2023-07-31T14:13:16;3.17;;;0.70;;
37201;SDS011;37799;52.390;6.136;2023-07-31T14:15:42;3.38;;;0.60;;
37201;SDS011;37799;52.390;6.136;2023-07-31T14:18:20;2.22;;;0.43;;
37201;SDS011;37799;52.390;6.136;2023-07-31T14:20:45;3.00;;;0.80;;
37201;SDS011;37799;52.390;6.136;2023-07-31T14:23:10;3.15;;;0.82;;
37201;SDS011;37799;52.390;6.136;2023-07-31T14:25:36;2.33;;;0.55;;
37201;SDS011;37799;52.390;6.136;2023-07-31T14:28:01;1.98;;;0.60;;
37201;SDS011;37799;52.390;6.136;2023-07-31T14:30:26;1.92;;;0.45;;
37201;SDS011;37799;52.390;6.136;2023-07-31T14:32:53;2.38;;;0.70;;
37201;SDS011;37799;52.390;6.136;2023-07-31T14:35:19;2.30;;;0.50;;
37201;SDS011;37799;52.390;6.136;2023-07-31T14:37:44;3.17;;;0.90;;
37201;SDS011;37799;52.390;6.136;2023-07-31T14:40:11;2.58;;;0.68;;
37201;SDS011;37799;52.390;6.136;2023-07-31T14:42:38;3.63;;;0.63;;
37201;SDS011;37799;52.390;6.136;2023-07-31T14:45:05;3.10;;;1.00;;
37201;SDS011;37799;52.390;6.136;2023-07-31T14:47:31;3.92;;;0.80;;
37201;SDS011;37799;52.390;6.136;2023-07-31T14:49:57;2.97;;;0.82;;
37201;SDS011;37799;52.390;6.136;2023-07-31T14:52:23;3.55;;;0.95;;
37201;SDS011;37799;52.390;6.136;2023-07-31T14:54:49;4.00;;;0.90;;
37201;SDS011;37799;52.390;6.136;2023-07-31T14:57:15;3.03;;;0.63;;
37201;SDS011;37799;52.390;6.136;2023-07-31T14:59:40;2.50;;;0.70;;
37201;SDS011;37799;52.390;6.136;2023-07-31T15:02:06;2.85;;;0.73;;
37201;SDS011;37799;52.390;6.136;2023-07-31T15:04:33;1.70;;;0.50;;
37201;SDS011;37799;52.390;6.136;2023-07-31T15:06:58;3.38;;;0.70;;